Ludington, MI

8:51 AM EDT on July 21, 2017 (GMT -0400)
Mason County

Weather History for KLDM - January, 2013

Change the Weather History Date:

Wednesday, January 16, 2013

  Actual Average Record
Temperature  
Mean Temperature 32 °F -  
Max Temperature 35 °F 29 °F 57 °F (1949)
Min Temperature 30 °F 12 °F -15 °F (1982)
Degree Days  
Heating Degree Days 32    
Moisture  
Dew Point 22 °F    
Average Humidity 66    
Maximum Humidity 88    
Minimum Humidity 54    
Precipitation  
Precipitation 0.00 in - - ()
Sea Level Pressure  
Sea Level Pressure 29.85 in    
Wind  
Wind Speed 14 mph (WSW)    
Max Wind Speed 25 mph    
Max Gust Speed 36 mph    
Visibility 9 miles    
Events Snow    
Averages and records for this station are not official NWS values.
T = Trace of Precipitation, MM = Missing Value Source: NWS Daily Summary

Daily Weather History Graph

Daily Weather History Graph

Search for Another Location

Airport or City:

Trip Planner

Search our weather history database for the weather conditions in past years. The results will help you decide how hot, cold, wet, or windy it might be!

Date:

Astronomy

Jan. 16, 2013 Rise Set
Actual Time 8:16 AM EST 5:35 PM EST
Civil Twilight 7:44 AM EST 6:07 PM EST
Nautical Twilight 7:08 AM EST 6:42 PM EST
Astronomical Twilight 6:34 AM EST 7:17 PM EST
Moon 10:39 AM EST (1/16) 11:40 PM EST (1/16)
Length of Visible Light 10h 22m
Length of Day
9h 18m
Waxing Crescent, 28% of the Moon is Illuminated
Jan 16
Waxing Crescent
Jan 18
First Quarter
Jan 26
Full
Feb 3
Last Quarter
Feb 10
New

Hourly Weather History & Observations

Time (EST) Temp. Windchill Dew Point Humidity Pressure Visibility Wind Dir Wind Speed Gust Speed Precip Events Conditions
12:15 AM 30.2 °F 20.8 °F 18.7 °F 62% 30.07 in 10.0 mi WSW 11.5 mph - N/A   Scattered Clouds
12:35 AM 30.2 °F 20.8 °F 18.5 °F 62% 30.06 in 10.0 mi SW 11.5 mph 21.9 mph N/A   Scattered Clouds
1:15 AM 30.2 °F 21.3 °F 18.1 °F 61% 30.04 in 10.0 mi WSW 10.4 mph 13.8 mph N/A   Clear
1:35 AM 30.2 °F 19.3 °F 18.5 °F 62% 30.03 in 10.0 mi WSW 15.0 mph 19.6 mph N/A   Scattered Clouds
1:55 AM 30.2 °F 20.8 °F 19.4 °F 64% 30.02 in 10.0 mi WSW 11.5 mph 17.3 mph N/A   Scattered Clouds
2:14 AM 30.2 °F 21.3 °F 19.4 °F 64% 30.02 in 10.0 mi WSW 10.4 mph 17.3 mph N/A   Scattered Clouds
2:35 AM 30.2 °F 21.3 °F 19.4 °F 64% 30.01 in 10.0 mi SW 10.4 mph 16.1 mph N/A   Scattered Clouds
2:55 AM 30.2 °F 20.2 °F 19.0 °F 63% 30.00 in 10.0 mi SW 12.7 mph 16.1 mph N/A   Scattered Clouds
3:15 AM 30.2 °F 18.9 °F 18.1 °F 61% 29.99 in 10.0 mi SW 16.1 mph 20.7 mph N/A   Clear
3:35 AM 30.2 °F 21.9 °F 18.3 °F 61% 29.98 in 10.0 mi SW 9.2 mph 19.6 mph N/A   Clear
3:54 AM 30.2 °F 20.2 °F 17.6 °F 60% 29.97 in 10.0 mi SW 12.7 mph 19.6 mph N/A   Clear
4:15 AM 30.2 °F 19.3 °F 16.7 °F 57% 29.96 in 10.0 mi SW 15.0 mph 20.7 mph N/A   Clear
4:35 AM 30.2 °F 19.3 °F 16.5 °F 57% 29.95 in 10.0 mi SW 15.0 mph 20.7 mph N/A   Clear
4:54 AM 30.2 °F 18.5 °F 15.8 °F 55% 29.94 in 10.0 mi SW 17.3 mph 24.2 mph N/A   Clear
5:15 AM 30.2 °F 19.8 °F 15.3 °F 54% 29.92 in 10.0 mi SW 13.8 mph 21.9 mph N/A   Clear
5:34 AM 30.2 °F 19.8 °F 16.2 °F 56% 29.90 in 10.0 mi SW 13.8 mph 24.2 mph N/A   Clear
5:55 AM 30.2 °F 17.4 °F 16.7 °F 57% 29.90 in 10.0 mi SW 20.7 mph 25.3 mph N/A   Clear
6:15 AM 30.2 °F 18.5 °F 17.4 °F 59% 29.89 in 10.0 mi SW 17.3 mph 25.3 mph N/A   Clear
6:35 AM 30.2 °F 18.5 °F 16.7 °F 57% 29.88 in 10.0 mi SW 17.3 mph 27.6 mph N/A   Clear
6:55 AM 30.2 °F 18.1 °F 16.5 °F 57% 29.88 in 10.0 mi WSW 18.4 mph 26.5 mph N/A   Clear
7:35 AM 30.2 °F 18.9 °F 17.4 °F 59% 29.86 in 10.0 mi SW 16.1 mph 24.2 mph N/A   Clear
7:55 AM 30.2 °F 18.1 °F 18.3 °F 61% 29.84 in 10.0 mi SW 18.4 mph 26.5 mph N/A   Clear
8:14 AM 30.2 °F 18.1 °F 18.0 °F 60% 29.83 in 10.0 mi SW 18.4 mph 27.6 mph N/A   Clear
8:35 AM 30.2 °F 18.9 °F 16.7 °F 57% 29.83 in 10.0 mi SW 16.1 mph 26.5 mph N/A   Clear
8:55 AM 30.2 °F 17.1 °F 16.7 °F 57% 29.82 in 10.0 mi SW 21.9 mph 28.8 mph N/A   Clear
9:15 AM 31.6 °F 19.3 °F 18.9 °F 59% 29.81 in 10.0 mi SW 20.7 mph 28.8 mph N/A   Clear
9:35 AM 32.4 °F 20.9 °F 19.6 °F 59% 29.81 in 10.0 mi SW 18.4 mph 32.2 mph N/A   Mostly Cloudy
9:55 AM 32.5 °F 20.2 °F 20.5 °F 61% 29.80 in 10.0 mi SW 21.9 mph 29.9 mph N/A   Overcast
10:15 AM 32.5 °F 20.8 °F 20.5 °F 61% 29.79 in 10.0 mi SW 19.6 mph 29.9 mph N/A   Overcast
10:35 AM 32.5 °F 19.6 °F 20.7 °F 62% 29.79 in 10.0 mi SW 24.2 mph 35.7 mph N/A   Overcast
10:55 AM 32.5 °F 20.2 °F 21.0 °F 63% 29.77 in 10.0 mi SW 21.9 mph 29.9 mph N/A   Overcast
11:15 AM 32.5 °F 19.4 °F 21.0 °F 63% 29.77 in 10.0 mi SW 25.3 mph 35.7 mph N/A   Overcast
11:35 AM 32.5 °F 21.2 °F 21.4 °F 64% 29.76 in 10.0 mi SW 18.4 mph 32.2 mph N/A   Overcast
11:54 AM 32.5 °F 21.5 °F 21.2 °F 63% 29.74 in 10.0 mi SW 17.3 mph 32.2 mph N/A   Overcast
12:15 PM 34.0 °F 23.4 °F 22.5 °F 63% 29.73 in 10.0 mi SW 17.3 mph 29.9 mph N/A   Overcast
12:35 PM 34.3 °F 23.9 °F 22.3 °F 61% 29.72 in 10.0 mi SW 17.3 mph 31.1 mph N/A   Overcast
12:54 PM 32.5 °F 20.2 °F 21.7 °F 64% 29.71 in 4.0 mi SW 21.9 mph 32.2 mph N/A Snow Light Snow
1:15 PM 32.5 °F 19.9 °F 23.9 °F 70% 29.71 in 2.0 mi SW 23.0 mph 29.9 mph N/A Snow Light Snow
1:35 PM 32.5 °F 20.8 °F 25.7 °F 76% 29.71 in 2.0 mi SW 19.6 mph 28.8 mph N/A Snow Light Snow
1:55 PM 32.5 °F 21.5 °F 24.6 °F 73% 29.70 in 10.0 mi WSW 17.3 mph 25.3 mph N/A   Overcast
2:15 PM 35.1 °F 25.2 °F 23.4 °F 62% 29.71 in 10.0 mi West 16.1 mph 25.3 mph N/A   Overcast
2:35 PM 35.1 °F 26.4 °F 24.1 °F 64% 29.72 in 7.0 mi West 12.7 mph 18.4 mph N/A Snow Light Snow
2:55 PM 35.1 °F 26.9 °F 24.6 °F 66% 29.72 in 10.0 mi West 11.5 mph 23.0 mph N/A   Overcast
3:15 PM 35.1 °F 27.4 °F 25.3 °F 68% 29.72 in 10.0 mi West 10.4 mph 17.3 mph N/A   Overcast
3:35 PM 35.1 °F 27.4 °F 25.5 °F 68% 29.73 in 10.0 mi West 10.4 mph - N/A   Overcast
3:55 PM 34.9 °F 26.6 °F 25.9 °F 70% 29.73 in 10.0 mi West 11.5 mph 17.3 mph N/A   Overcast
4:15 PM 35.1 °F 26.4 °F 26.2 °F 70% 29.74 in 10.0 mi West 12.7 mph 19.6 mph N/A   Overcast
4:35 PM 35.1 °F 28.6 °F 26.6 °F 71% 29.76 in 10.0 mi West 8.1 mph 16.1 mph N/A   Overcast
4:55 PM 35.1 °F 27.4 °F 26.4 °F 71% 29.76 in 10.0 mi West 10.4 mph 18.4 mph N/A   Overcast
5:15 PM 35.1 °F 27.4 °F 26.4 °F 71% 29.78 in 10.0 mi West 10.4 mph 18.4 mph N/A   Overcast
5:35 PM 35.1 °F 27.4 °F 26.6 °F 71% 29.78 in 10.0 mi WNW 10.4 mph 17.3 mph N/A   Overcast
5:54 PM 35.1 °F 26.9 °F 26.6 °F 71% 29.80 in 10.0 mi WNW 11.5 mph 16.1 mph N/A   Overcast
6:15 PM 35.1 °F 28.6 °F 26.6 °F 71% 29.82 in 10.0 mi WNW 8.1 mph - N/A   Overcast
6:35 PM 35.1 °F 27.4 °F 26.6 °F 71% 29.82 in 10.0 mi WNW 10.4 mph 16.1 mph N/A   Overcast
6:54 PM 35.1 °F 29.3 °F 26.6 °F 71% 29.82 in 10.0 mi WNW 6.9 mph - N/A   Overcast
7:15 PM 35.1 °F 27.9 °F 27.1 °F 73% - 7.0 mi WNW 9.2 mph 16.1 mph N/A Snow Light Snow
7:34 PM 32.5 °F 24.2 °F 28.2 °F 84% 29.84 in 2.0 mi WNW 10.4 mph 16.1 mph N/A Snow Light Snow
7:55 PM 32.5 °F 24.8 °F 29.1 °F 87% 29.85 in 2.0 mi WNW 9.2 mph 16.1 mph N/A Snow Light Snow
8:15 PM 32.5 °F 24.8 °F 29.3 °F 88% 29.86 in 2.5 mi WNW 9.2 mph - N/A Snow Light Snow
8:34 PM 32.5 °F 26.2 °F 28.8 °F 86% 29.87 in 5.0 mi NW 6.9 mph - N/A Snow Light Snow
8:55 PM 32.5 °F 25.5 °F 27.3 °F 81% 29.88 in 7.0 mi NW 8.1 mph 16.1 mph N/A Snow Light Snow
9:15 PM 32.5 °F 27.1 °F 27.3 °F 81% 29.88 in 10.0 mi NW 5.8 mph - N/A   Overcast
9:34 PM 32.5 °F 27.1 °F 27.5 °F 82% 29.90 in 10.0 mi NW 5.8 mph - N/A   Mostly Cloudy
9:55 PM 32.5 °F 25.5 °F 27.5 °F 82% 29.91 in 10.0 mi NNW 8.1 mph - N/A   Overcast
10:15 PM 32.5 °F 27.1 °F 25.7 °F 76% 29.92 in 10.0 mi NW 5.8 mph 16.1 mph N/A   Overcast
10:35 PM 34.0 °F 27.2 °F 26.1 °F 73% 29.92 in 10.0 mi NNW 8.1 mph 18.4 mph N/A   Overcast
10:55 PM 35.1 °F 26.9 °F 25.7 °F 69% 29.93 in 10.0 mi NNW 11.5 mph 17.3 mph N/A   Overcast
11:15 PM 35.1 °F 28.6 °F 25.7 °F 69% 29.93 in 10.0 mi NW 8.1 mph 18.4 mph N/A   Overcast
11:35 PM 35.1 °F 27.9 °F 25.3 °F 68% 29.95 in 10.0 mi NW 9.2 mph 17.3 mph N/A   Overcast
11:55 PM 32.5 °F 24.2 °F 23.0 °F 68% 29.97 in 10.0 mi North 10.4 mph - N/A   Overcast